sensor_id;sensor_type;location;lat;lon;timestamp;temperature;humidity
3190;DHT22;1606;51.946;10.558;2023-06-22T00:00:53;23.80;99.90
3190;DHT22;1606;51.946;10.558;2023-06-22T00:03:23;23.90;99.90
3190;DHT22;1606;51.946;10.558;2023-06-22T00:05:52;23.70;99.90
3190;DHT22;1606;51.946;10.558;2023-06-22T00:08:20;23.60;99.90
3190;DHT22;1606;51.946;10.558;2023-06-22T00:10:48;23.40;99.90
3190;DHT22;1606;51.946;10.558;2023-06-22T00:13:16;23.30;99.90
3190;DHT22;1606;51.946;10.558;2023-06-22T00:15:46;23.20;99.90
3190;DHT22;1606;51.946;10.558;2023-06-22T00:18:14;23.10;99.90
3190;DHT22;1606;51.946;10.558;2023-06-22T00:20:42;23.10;99.90
3190;DHT22;1606;51.946;10.558;2023-06-22T00:23:26;23.10;99.90
3190;DHT22;1606;51.946;10.558;2023-06-22T00:25:54;23.10;99.90
3190;DHT22;1606;51.946;10.558;2023-06-22T00:28:22;23.30;99.90
3190;DHT22;1606;51.946;10.558;2023-06-22T00:30:52;23.10;99.90
3190;DHT22;1606;51.946;10.558;2023-06-22T00:33:20;23.10;99.90
3190;DHT22;1606;51.946;10.558;2023-06-22T00:35:48;23.00;99.90
3190;DHT22;1606;51.946;10.558;2023-06-22T00:38:19;23.00;99.90
3190;DHT22;1606;51.946;10.558;2023-06-22T00:40:47;23.10;99.90
3190;DHT22;1606;51.946;10.558;2023-06-22T00:43:15;23.10;99.90
3190;DHT22;1606;51.946;10.558;2023-06-22T00:45:43;23.10;99.90
3190;DHT22;1606;51.946;10.558;2023-06-22T00:48:14;23.10;99.90
3190;DHT22;1606;51.946;10.558;2023-06-22T00:50:42;23.10;99.90
3190;DHT22;1606;51.946;10.558;2023-06-22T00:53:10;23.00;99.90
3190;DHT22;1606;51.946;10.558;2023-06-22T00:55:41;23.00;99.90
3190;DHT22;1606;51.946;10.558;2023-06-22T00:58:09;23.00;99.90
3190;DHT22;1606;51.946;10.558;2023-06-22T01:00:38;22.90;99.90
3190;DHT22;1606;51.946;10.558;2023-06-22T01:03:07;23.00;99.90
3190;DHT22;1606;51.946;10.558;2023-06-22T01:05:39;23.00;99.90
3190;DHT22;1606;51.946;10.558;2023-06-22T01:08:16;22.90;99.90
3190;DHT22;1606;51.946;10.558;2023-06-22T01:10:51;22.80;99.90
3190;DHT22;1606;51.946;10.558;2023-06-22T01:13:28;22.80;99.90
3190;DHT22;1606;51.946;10.558;2023-06-22T01:16:00;22.80;99.90
3190;DHT22;1606;51.946;10.558;2023-06-22T01:18:31;22.90;99.90
3190;DHT22;1606;51.946;10.558;2023-06-22T01:21:01;22.90;99.90
3190;DHT22;1606;51.946;10.558;2023-06-22T01:23:48;23.00;99.90
3190;DHT22;1606;51.946;10.558;2023-06-22T01:26:20;23.00;99.90
3190;DHT22;1606;51.946;10.558;2023-06-22T01:28:53;22.90;99.90
3190;DHT22;1606;51.946;10.558;2023-06-22T01:31:24;22.90;99.90
3190;DHT22;1606;51.946;10.558;2023-06-22T01:33:54;22.80;99.90
3190;DHT22;1606;51.946;10.558;2023-06-22T01:36:24;22.60;99.90
3190;DHT22;1606;51.946;10.558;2023-06-22T01:38:53;22.70;99.90
3190;DHT22;1606;51.946;10.558;2023-06-22T01:41:23;22.70;99.90
3190;DHT22;1606;51.946;10.558;2023-06-22T01:43:54;22.60;99.90
3190;DHT22;1606;51.946;10.558;2023-06-22T01:46:23;22.50;99.90
3190;DHT22;1606;51.946;10.558;2023-06-22T01:48:51;22.40;99.90
3190;DHT22;1606;51.946;10.558;2023-06-22T01:51:19;22.40;99.90
3190;DHT22;1606;51.946;10.558;2023-06-22T01:53:47;22.20;99.90
3190;DHT22;1606;51.946;10.558;2023-06-22T01:56:17;22.20;99.90
3190;DHT22;1606;51.946;10.558;2023-06-22T01:58:49;22.20;99.90
3190;DHT22;1606;51.946;10.558;2023-06-22T02:01:23;22.30;99.90
3190;DHT22;1606;51.946;10.558;2023-06-22T02:03:57;22.20;99.90
3190;DHT22;1606;51.946;10.558;2023-06-22T02:06:32;22.20;99.90
3190;DHT22;1606;51.946;10.558;2023-06-22T02:09:04;22.20;99.90
3190;DHT22;1606;51.946;10.558;2023-06-22T02:11:34;22.10;99.90
3190;DHT22;1606;51.946;10.558;2023-06-22T02:14:02;22.10;99.90
3190;DHT22;1606;51.946;10.558;2023-06-22T02:16:32;22.20;99.90
3190;DHT22;1606;51.946;10.558;2023-06-22T02:19:02;22.30;99.90
3190;DHT22;1606;51.946;10.558;2023-06-22T02:21:30;22.30;99.90
3190;DHT22;1606;51.946;10.558;2023-06-22T02:23:58;22.30;99.90
3190;DHT22;1606;51.946;10.558;2023-06-22T02:26:27;22.30;99.90
3190;DHT22;1606;51.946;10.558;2023-06-22T02:28:55;22.30;99.90
3190;DHT22;1606;51.946;10.558;2023-06-22T02:31:23;22.40;99.90
3190;DHT22;1606;51.946;10.558;2023-06-22T02:33:59;22.40;99.90
3190;DHT22;1606;51.946;10.558;2023-06-22T02:36:27;22.30;99.90
3190;DHT22;1606;51.946;10.558;2023-06-22T02:38:57;22.30;99.90
3190;DHT22;1606;51.946;10.558;2023-06-22T02:41:25;22.20;99.90
3190;DHT22;1606;51.946;10.558;2023-06-22T02:43:53;22.30;99.90
3190;DHT22;1606;51.946;10.558;2023-06-22T02:46:21;22.20;99.90
3190;DHT22;1606;51.946;10.558;2023-06-22T02:48:48;22.30;99.90
3190;DHT22;1606;51.946;10.558;2023-06-22T02:51:18;22.30;99.90
3190;DHT22;1606;51.946;10.558;2023-06-22T02:53:45;22.40;99.90
3190;DHT22;1606;51.946;10.558;2023-06-22T02:56:13;22.40;99.90
3190;DHT22;1606;51.946;10.558;2023-06-22T02:58:42;22.40;99.90
3190;DHT22;1606;51.946;10.558;2023-06-22T03:01:10;22.30;99.90
3190;DHT22;1606;51.946;10.558;2023-06-22T03:03:39;22.30;99.90
3190;DHT22;1606;51.946;10.558;2023-06-22T03:06:07;22.30;99.90
3190;DHT22;1606;51.946;10.558;2023-06-22T03:08:42;22.20;99.90
3190;DHT22;1606;51.946;10.558;2023-06-22T03:11:10;22.20;99.90
3190;DHT22;1606;51.946;10.558;2023-06-22T03:13:37;22.20;99.90
3190;DHT22;1606;51.946;10.558;2023-06-22T03:16:05;22.20;99.90
3190;DHT22;1606;51.946;10.558;2023-06-22T03:18:33;22.20;99.90
3190;DHT22;1606;51.946;10.558;2023-06-22T03:21:01;22.30;99.90
3190;DHT22;1606;51.946;10.558;2023-06-22T03:23:29;22.20;99.90
3190;DHT22;1606;51.946;10.558;2023-06-22T03:25:58;22.20;99.90
3190;DHT22;1606;51.946;10.558;2023-06-22T03:28:26;22.30;99.90
3190;DHT22;1606;51.946;10.558;2023-06-22T03:30:53;22.40;99.90
3190;DHT22;1606;51.946;10.558;2023-06-22T03:33:21;22.30;99.90
3190;DHT22;1606;51.946;10.558;2023-06-22T03:35:49;22.30;99.90
3190;DHT22;1606;51.946;10.558;2023-06-22T03:38:17;22.20;99.90
3190;DHT22;1606;51.946;10.558;2023-06-22T03:40:45;22.20;99.90
3190;DHT22;1606;51.946;10.558;2023-06-22T03:43:15;22.20;99.90
3190;DHT22;1606;51.946;10.558;2023-06-22T03:45:42;22.20;99.90
3190;DHT22;1606;51.946;10.558;2023-06-22T03:48:12;22.30;99.90
3190;DHT22;1606;51.946;10.558;2023-06-22T03:50:40;22.10;99.90
3190;DHT22;1606;51.946;10.558;2023-06-22T03:53:08;22.20;99.90
3190;DHT22;1606;51.946;10.558;2023-06-22T03:55:35;22.30;99.90
3190;DHT22;1606;51.946;10.558;2023-06-22T03:58:03;22.10;99.90
3190;DHT22;1606;51.946;10.558;2023-06-22T04:00:33;22.10;99.90
3190;DHT22;1606;51.946;10.558;2023-06-22T04:03:01;22.10;99.90
3190;DHT22;1606;51.946;10.558;2023-06-22T04:05:29;22.20;99.90
3190;DHT22;1606;51.946;10.558;2023-06-22T04:07:57;22.30;99.90
3190;DHT22;1606;51.946;10.558;2023-06-22T04:10:25;22.30;99.90
3190;DHT22;1606;51.946;10.558;2023-06-22T04:12:53;22.40;99.90
3190;DHT22;1606;51.946;10.558;2023-06-22T04:15:21;22.40;99.90
3190;DHT22;1606;51.946;10.558;2023-06-22T04:17:50;22.30;99.90
3190;DHT22;1606;51.946;10.558;2023-06-22T04:20:18;22.20;99.90
3190;DHT22;1606;51.946;10.558;2023-06-22T04:22:45;22.20;99.90
3190;DHT22;1606;51.946;10.558;2023-06-22T04:25:14;22.20;99.90
3190;DHT22;1606;51.946;10.558;2023-06-22T04:27:42;22.30;99.90
3190;DHT22;1606;51.946;10.558;2023-06-22T04:30:10;22.50;99.90
3190;DHT22;1606;51.946;10.558;2023-06-22T04:32:38;22.50;99.90
3190;DHT22;1606;51.946;10.558;2023-06-22T04:35:09;22.60;99.90
3190;DHT22;1606;51.946;10.558;2023-06-22T04:37:37;22.60;99.90
3190;DHT22;1606;51.946;10.558;2023-06-22T04:40:06;22.70;99.90
3190;DHT22;1606;51.946;10.558;2023-06-22T04:42:37;22.70;99.90
3190;DHT22;1606;51.946;10.558;2023-06-22T04:45:06;22.80;99.90
3190;DHT22;1606;51.946;10.558;2023-06-22T04:47:34;22.90;99.90
3190;DHT22;1606;51.946;10.558;2023-06-22T04:50:06;22.90;99.90
3190;DHT22;1606;51.946;10.558;2023-06-22T04:52:35;22.90;99.90
3190;DHT22;1606;51.946;10.558;2023-06-22T04:55:04;22.90;99.90
3190;DHT22;1606;51.946;10.558;2023-06-22T04:57:32;23.00;99.90
3190;DHT22;1606;51.946;10.558;2023-06-22T05:00:00;22.90;99.90
3190;DHT22;1606;51.946;10.558;2023-06-22T05:02:39;22.80;99.90
3190;DHT22;1606;51.946;10.558;2023-06-22T05:05:08;22.80;99.90
3190;DHT22;1606;51.946;10.558;2023-06-22T05:07:42;22.80;99.90
3190;DHT22;1606;51.946;10.558;2023-06-22T05:10:11;22.90;99.90
3190;DHT22;1606;51.946;10.558;2023-06-22T05:12:39;22.90;99.90
3190;DHT22;1606;51.946;10.558;2023-06-22T05:15:08;22.90;99.90
3190;DHT22;1606;51.946;10.558;2023-06-22T05:17:37;23.00;99.90
3190;DHT22;1606;51.946;10.558;2023-06-22T05:20:10;23.00;99.90
3190;DHT22;1606;51.946;10.558;2023-06-22T05:22:38;23.00;99.90
3190;DHT22;1606;51.946;10.558;2023-06-22T05:25:10;23.00;99.90
3190;DHT22;1606;51.946;10.558;2023-06-22T05:27:38;23.10;99.90
3190;DHT22;1606;51.946;10.558;2023-06-22T05:30:08;23.10;99.90
3190;DHT22;1606;51.946;10.558;2023-06-22T05:32:36;23.20;99.90
3190;DHT22;1606;51.946;10.558;2023-06-22T05:35:04;23.20;99.90
3190;DHT22;1606;51.946;10.558;2023-06-22T05:37:32;23.30;99.90
3190;DHT22;1606;51.946;10.558;2023-06-22T05:40:00;23.40;99.90
3190;DHT22;1606;51.946;10.558;2023-06-22T05:42:29;23.40;99.90
3190;DHT22;1606;51.946;10.558;2023-06-22T05:44:57;23.40;99.90
3190;DHT22;1606;51.946;10.558;2023-06-22T05:47:25;23.40;99.90
3190;DHT22;1606;51.946;10.558;2023-06-22T05:49:53;23.40;99.90
3190;DHT22;1606;51.946;10.558;2023-06-22T05:52:21;23.30;99.90
3190;DHT22;1606;51.946;10.558;2023-06-22T05:54:49;23.30;99.90
3190;DHT22;1606;51.946;10.558;2023-06-22T05:57:16;23.30;99.90
3190;DHT22;1606;51.946;10.558;2023-06-22T05:59:46;23.30;99.90
3190;DHT22;1606;51.946;10.558;2023-06-22T06:02:13;23.10;99.90
3190;DHT22;1606;51.946;10.558;2023-06-22T06:04:41;23.10;99.90
3190;DHT22;1606;51.946;10.558;2023-06-22T06:07:09;23.00;99.90
3190;DHT22;1606;51.946;10.558;2023-06-22T06:09:37;23.10;99.90
3190;DHT22;1606;51.946;10.558;2023-06-22T06:12:06;23.00;99.90
3190;DHT22;1606;51.946;10.558;2023-06-22T06:14:33;23.20;99.90
3190;DHT22;1606;51.946;10.558;2023-06-22T06:17:03;23.20;99.90
3190;DHT22;1606;51.946;10.558;2023-06-22T06:19:31;23.30;99.90
3190;DHT22;1606;51.946;10.558;2023-06-22T06:21:59;23.30;99.90
3190;DHT22;1606;51.946;10.558;2023-06-22T06:24:26;23.40;99.90
3190;DHT22;1606;51.946;10.558;2023-06-22T06:26:54;23.40;99.90
3190;DHT22;1606;51.946;10.558;2023-06-22T06:29:22;23.30;99.90
3190;DHT22;1606;51.946;10.558;2023-06-22T06:31:50;23.40;99.90
3190;DHT22;1606;51.946;10.558;2023-06-22T06:34:22;23.50;99.90
3190;DHT22;1606;51.946;10.558;2023-06-22T06:36:49;23.50;99.90
3190;DHT22;1606;51.946;10.558;2023-06-22T06:39:17;23.50;99.90
3190;DHT22;1606;51.946;10.558;2023-06-22T06:41:45;23.60;99.90
3190;DHT22;1606;51.946;10.558;2023-06-22T06:44:13;23.50;99.90
3190;DHT22;1606;51.946;10.558;2023-06-22T06:46:41;23.60;99.90
3190;DHT22;1606;51.946;10.558;2023-06-22T06:49:09;23.70;99.90
3190;DHT22;1606;51.946;10.558;2023-06-22T06:51:38;23.90;99.90
3190;DHT22;1606;51.946;10.558;2023-06-22T06:54:06;23.90;99.90
3190;DHT22;1606;51.946;10.558;2023-06-22T06:56:34;24.00;99.90
3190;DHT22;1606;51.946;10.558;2023-06-22T06:59:02;24.10;99.90
3190;DHT22;1606;51.946;10.558;2023-06-22T07:01:30;24.30;99.90
3190;DHT22;1606;51.946;10.558;2023-06-22T07:04:00;24.40;99.90
3190;DHT22;1606;51.946;10.558;2023-06-22T07:06:28;24.70;99.90
3190;DHT22;1606;51.946;10.558;2023-06-22T07:09:00;24.60;99.90
3190;DHT22;1606;51.946;10.558;2023-06-22T07:11:28;24.70;99.90
3190;DHT22;1606;51.946;10.558;2023-06-22T07:13:56;24.80;99.90
3190;DHT22;1606;51.946;10.558;2023-06-22T07:16:24;24.80;99.90
3190;DHT22;1606;51.946;10.558;2023-06-22T07:18:54;24.70;99.90
3190;DHT22;1606;51.946;10.558;2023-06-22T07:21:22;24.60;99.90
3190;DHT22;1606;51.946;10.558;2023-06-22T07:23:50;24.70;99.90
3190;DHT22;1606;51.946;10.558;2023-06-22T07:26:19;24.70;99.90
3190;DHT22;1606;51.946;10.558;2023-06-22T07:28:47;24.70;99.90
3190;DHT22;1606;51.946;10.558;2023-06-22T07:31:15;24.70;99.90
3190;DHT22;1606;51.946;10.558;2023-06-22T07:33:42;24.70;99.90
3190;DHT22;1606;51.946;10.558;2023-06-22T07:36:10;24.80;99.90
3190;DHT22;1606;51.946;10.558;2023-06-22T07:38:38;24.90;99.90
3190;DHT22;1606;51.946;10.558;2023-06-22T07:41:06;24.90;99.90
3190;DHT22;1606;51.946;10.558;2023-06-22T07:43:35;25.10;99.90
3190;DHT22;1606;51.946;10.558;2023-06-22T07:46:03;25.10;99.90
3190;DHT22;1606;51.946;10.558;2023-06-22T07:48:31;25.20;99.90
3190;DHT22;1606;51.946;10.558;2023-06-22T07:50:59;25.30;99.90
3190;DHT22;1606;51.946;10.558;2023-06-22T07:53:27;25.40;99.90
3190;DHT22;1606;51.946;10.558;2023-06-22T07:55:55;25.60;99.90
3190;DHT22;1606;51.946;10.558;2023-06-22T07:58:23;25.60;99.90
3190;DHT22;1606;51.946;10.558;2023-06-22T08:00:52;25.80;99.90
3190;DHT22;1606;51.946;10.558;2023-06-22T08:03:20;26.10;99.90
3190;DHT22;1606;51.946;10.558;2023-06-22T08:05:48;26.20;99.90
3190;DHT22;1606;51.946;10.558;2023-06-22T08:08:16;26.30;99.90
3190;DHT22;1606;51.946;10.558;2023-06-22T08:10:44;26.60;99.90
3190;DHT22;1606;51.946;10.558;2023-06-22T08:13:12;26.80;99.90
3190;DHT22;1606;51.946;10.558;2023-06-22T08:15:40;27.00;99.90
3190;DHT22;1606;51.946;10.558;2023-06-22T08:18:09;27.10;99.90
3190;DHT22;1606;51.946;10.558;2023-06-22T08:20:37;27.10;99.90
3190;DHT22;1606;51.946;10.558;2023-06-22T08:23:05;27.10;99.90
3190;DHT22;1606;51.946;10.558;2023-06-22T08:25:33;27.00;99.90
3190;DHT22;1606;51.946;10.558;2023-06-22T08:28:01;27.10;99.90
3190;DHT22;1606;51.946;10.558;2023-06-22T08:30:29;26.90;99.90
3190;DHT22;1606;51.946;10.558;2023-06-22T08:32:57;26.80;99.90
3190;DHT22;1606;51.946;10.558;2023-06-22T08:35:27;26.80;99.90
3190;DHT22;1606;51.946;10.558;2023-06-22T08:37:56;26.90;99.90
3190;DHT22;1606;51.946;10.558;2023-06-22T08:40:24;26.90;99.90
3190;DHT22;1606;51.946;10.558;2023-06-22T08:42:52;26.80;99.90
3190;DHT22;1606;51.946;10.558;2023-06-22T08:45:20;26.80;99.90
3190;DHT22;1606;51.946;10.558;2023-06-22T08:47:48;26.90;99.90
3190;DHT22;1606;51.946;10.558;2023-06-22T08:50:16;26.90;99.90
3190;DHT22;1606;51.946;10.558;2023-06-22T08:52:45;27.10;99.90
3190;DHT22;1606;51.946;10.558;2023-06-22T08:55:14;27.10;99.90
3190;DHT22;1606;51.946;10.558;2023-06-22T08:57:42;27.30;99.90
3190;DHT22;1606;51.946;10.558;2023-06-22T09:00:11;27.20;99.90
3190;DHT22;1606;51.946;10.558;2023-06-22T09:02:43;27.30;99.90
3190;DHT22;1606;51.946;10.558;2023-06-22T09:05:11;27.40;99.90
3190;DHT22;1606;51.946;10.558;2023-06-22T09:07:40;27.70;99.90
3190;DHT22;1606;51.946;10.558;2023-06-22T09:10:09;27.70;99.90
3190;DHT22;1606;51.946;10.558;2023-06-22T09:12:38;27.60;99.90
3190;DHT22;1606;51.946;10.558;2023-06-22T09:15:07;27.60;99.90
3190;DHT22;1606;51.946;10.558;2023-06-22T09:17:41;27.60;99.90
3190;DHT22;1606;51.946;10.558;2023-06-22T09:20:10;27.50;99.90
3190;DHT22;1606;51.946;10.558;2023-06-22T09:22:38;27.50;99.90
3190;DHT22;1606;51.946;10.558;2023-06-22T09:25:07;27.60;99.90
3190;DHT22;1606;51.946;10.558;2023-06-22T09:27:36;27.70;99.90
3190;DHT22;1606;51.946;10.558;2023-06-22T09:30:05;27.90;99.90
3190;DHT22;1606;51.946;10.558;2023-06-22T09:32:34;28.00;99.90
3190;DHT22;1606;51.946;10.558;2023-06-22T09:35:06;28.00;99.90
3190;DHT22;1606;51.946;10.558;2023-06-22T09:37:36;28.10;99.90
3190;DHT22;1606;51.946;10.558;2023-06-22T09:40:05;28.30;99.90
3190;DHT22;1606;51.946;10.558;2023-06-22T09:42:37;28.30;99.90
3190;DHT22;1606;51.946;10.558;2023-06-22T09:45:06;28.50;99.90
3190;DHT22;1606;51.946;10.558;2023-06-22T09:47:34;28.60;99.90
3190;DHT22;1606;51.946;10.558;2023-06-22T09:50:02;28.70;99.90
3190;DHT22;1606;51.946;10.558;2023-06-22T09:52:30;28.70;99.90
3190;DHT22;1606;51.946;10.558;2023-06-22T09:55:13;28.60;99.90
3190;DHT22;1606;51.946;10.558;2023-06-22T09:57:44;28.90;99.90
3190;DHT22;1606;51.946;10.558;2023-06-22T10:00:12;29.20;99.90
3190;DHT22;1606;51.946;10.558;2023-06-22T10:02:42;29.40;99.90
3190;DHT22;1606;51.946;10.558;2023-06-22T10:05:10;29.70;99.90
3190;DHT22;1606;51.946;10.558;2023-06-22T10:07:39;30.00;99.90
3190;DHT22;1606;51.946;10.558;2023-06-22T10:10:10;30.10;99.40
3190;DHT22;1606;51.946;10.558;2023-06-22T10:12:42;30.10;99.20
3190;DHT22;1606;51.946;10.558;2023-06-22T10:15:13;30.00;98.70
3190;DHT22;1606;51.946;10.558;2023-06-22T10:17:41;29.80;99.40
3190;DHT22;1606;51.946;10.558;2023-06-22T10:20:09;29.80;99.90
3190;DHT22;1606;51.946;10.558;2023-06-22T10:22:41;29.90;98.40
3190;DHT22;1606;51.946;10.558;2023-06-22T10:25:10;29.80;99.00
3190;DHT22;1606;51.946;10.558;2023-06-22T10:27:38;29.80;98.80
3190;DHT22;1606;51.946;10.558;2023-06-22T10:30:08;29.80;99.00
3190;DHT22;1606;51.946;10.558;2023-06-22T10:32:39;29.80;98.70
3190;DHT22;1606;51.946;10.558;2023-06-22T10:35:07;29.60;99.60
3190;DHT22;1606;51.946;10.558;2023-06-22T10:37:37;29.60;99.50
3190;DHT22;1606;51.946;10.558;2023-06-22T10:40:06;29.60;99.90
3190;DHT22;1606;51.946;10.558;2023-06-22T10:42:34;29.50;99.90
3190;DHT22;1606;51.946;10.558;2023-06-22T10:45:02;29.70;99.60
3190;DHT22;1606;51.946;10.558;2023-06-22T10:47:30;29.30;99.90
3190;DHT22;1606;51.946;10.558;2023-06-22T10:49:59;29.20;99.70
3190;DHT22;1606;51.946;10.558;2023-06-22T10:52:27;29.10;99.90
3190;DHT22;1606;51.946;10.558;2023-06-22T10:54:55;29.30;99.90
3190;DHT22;1606;51.946;10.558;2023-06-22T10:57:23;29.10;99.90
3190;DHT22;1606;51.946;10.558;2023-06-22T10:59:51;29.30;99.90
3190;DHT22;1606;51.946;10.558;2023-06-22T11:02:19;29.30;99.90
3190;DHT22;1606;51.946;10.558;2023-06-22T11:04:47;29.60;99.60
3190;DHT22;1606;51.946;10.558;2023-06-22T11:07:16;29.60;99.60
3190;DHT22;1606;51.946;10.558;2023-06-22T11:09:45;29.50;99.80
3190;DHT22;1606;51.946;10.558;2023-06-22T11:12:13;29.60;99.80
3190;DHT22;1606;51.946;10.558;2023-06-22T11:14:41;29.90;99.10
3190;DHT22;1606;51.946;10.558;2023-06-22T11:17:08;29.80;97.60
3190;DHT22;1606;51.946;10.558;2023-06-22T11:19:36;29.90;97.20
3190;DHT22;1606;51.946;10.558;2023-06-22T11:22:05;29.80;98.10
3190;DHT22;1606;51.946;10.558;2023-06-22T11:24:34;30.00;97.70
3190;DHT22;1606;51.946;10.558;2023-06-22T11:27:02;30.10;97.90
3190;DHT22;1606;51.946;10.558;2023-06-22T11:29:31;30.30;98.00
3190;DHT22;1606;51.946;10.558;2023-06-22T11:32:05;30.10;97.40
3190;DHT22;1606;51.946;10.558;2023-06-22T11:34:33;29.90;96.80
3190;DHT22;1606;51.946;10.558;2023-06-22T11:37:01;29.90;96.90
3190;DHT22;1606;51.946;10.558;2023-06-22T11:39:30;30.10;96.40
3190;DHT22;1606;51.946;10.558;2023-06-22T11:42:10;29.90;96.90
3190;DHT22;1606;51.946;10.558;2023-06-22T11:44:38;29.90;97.30
3190;DHT22;1606;51.946;10.558;2023-06-22T11:47:06;30.00;98.20
3190;DHT22;1606;51.946;10.558;2023-06-22T11:49:34;30.10;97.60
3190;DHT22;1606;51.946;10.558;2023-06-22T11:52:02;30.20;96.30
3190;DHT22;1606;51.946;10.558;2023-06-22T11:54:29;30.30;96.30
3190;DHT22;1606;51.946;10.558;2023-06-22T11:56:57;30.70;96.00
3190;DHT22;1606;51.946;10.558;2023-06-22T11:59:26;30.70;95.30
3190;DHT22;1606;51.946;10.558;2023-06-22T12:01:54;30.80;95.70
3190;DHT22;1606;51.946;10.558;2023-06-22T12:04:22;30.80;95.60
3190;DHT22;1606;51.946;10.558;2023-06-22T12:06:50;31.00;93.80
3190;DHT22;1606;51.946;10.558;2023-06-22T12:09:18;31.10;93.20
3190;DHT22;1606;51.946;10.558;2023-06-22T12:11:46;31.10;93.90
3190;DHT22;1606;51.946;10.558;2023-06-22T12:14:13;31.20;93.30
3190;DHT22;1606;51.946;10.558;2023-06-22T12:16:43;31.10;94.50
3190;DHT22;1606;51.946;10.558;2023-06-22T12:19:11;31.10;93.40
3190;DHT22;1606;51.946;10.558;2023-06-22T12:21:39;31.10;93.80
3190;DHT22;1606;51.946;10.558;2023-06-22T12:24:07;31.40;94.40
3190;DHT22;1606;51.946;10.558;2023-06-22T12:26:36;31.60;93.80
3190;DHT22;1606;51.946;10.558;2023-06-22T12:29:03;31.90;93.00
3190;DHT22;1606;51.946;10.558;2023-06-22T12:31:31;32.10;92.00
3190;DHT22;1606;51.946;10.558;2023-06-22T12:34:00;32.00;93.40
3190;DHT22;1606;51.946;10.558;2023-06-22T12:36:28;32.20;93.90
3190;DHT22;1606;51.946;10.558;2023-06-22T12:38:56;32.30;92.60
3190;DHT22;1606;51.946;10.558;2023-06-22T12:41:24;32.00;92.80
3190;DHT22;1606;51.946;10.558;2023-06-22T12:43:52;31.90;93.00
3190;DHT22;1606;51.946;10.558;2023-06-22T12:46:20;32.10;93.30
3190;DHT22;1606;51.946;10.558;2023-06-22T12:48:48;31.90;94.10
3190;DHT22;1606;51.946;10.558;2023-06-22T12:51:21;31.90;93.30
3190;DHT22;1606;51.946;10.558;2023-06-22T12:53:50;32.40;92.30
3190;DHT22;1606;51.946;10.558;2023-06-22T12:56:18;32.80;92.00
3190;DHT22;1606;51.946;10.558;2023-06-22T12:58:45;33.00;91.70
3190;DHT22;1606;51.946;10.558;2023-06-22T13:01:13;33.40;90.40
3190;DHT22;1606;51.946;10.558;2023-06-22T13:03:42;33.40;91.30
3190;DHT22;1606;51.946;10.558;2023-06-22T13:06:10;33.40;89.60
3190;DHT22;1606;51.946;10.558;2023-06-22T13:08:39;33.50;87.50
3190;DHT22;1606;51.946;10.558;2023-06-22T13:11:10;33.30;90.00
3190;DHT22;1606;51.946;10.558;2023-06-22T13:13:38;33.30;88.70
3190;DHT22;1606;51.946;10.558;2023-06-22T13:16:07;33.00;89.60
3190;DHT22;1606;51.946;10.558;2023-06-22T13:18:34;32.80;90.10
3190;DHT22;1606;51.946;10.558;2023-06-22T13:21:03;32.90;89.30
3190;DHT22;1606;51.946;10.558;2023-06-22T13:23:31;32.70;89.60
3190;DHT22;1606;51.946;10.558;2023-06-22T13:26:00;32.70;89.80
3190;DHT22;1606;51.946;10.558;2023-06-22T13:28:29;32.50;89.20
3190;DHT22;1606;51.946;10.558;2023-06-22T13:30:57;32.70;88.60
3190;DHT22;1606;51.946;10.558;2023-06-22T13:33:25;32.60;90.00
3190;DHT22;1606;51.946;10.558;2023-06-22T13:35:52;32.60;91.60
3190;DHT22;1606;51.946;10.558;2023-06-22T13:38:20;32.40;90.30
3190;DHT22;1606;51.946;10.558;2023-06-22T13:40:49;32.40;92.50
3190;DHT22;1606;51.946;10.558;2023-06-22T13:43:18;32.40;90.40
3190;DHT22;1606;51.946;10.558;2023-06-22T13:45:46;32.50;90.40
3190;DHT22;1606;51.946;10.558;2023-06-22T13:48:13;32.60;88.50
3190;DHT22;1606;51.946;10.558;2023-06-22T13:50:41;32.70;89.40
3190;DHT22;1606;51.946;10.558;2023-06-22T13:53:09;32.90;88.40
3190;DHT22;1606;51.946;10.558;2023-06-22T13:55:37;33.00;89.80
3190;DHT22;1606;51.946;10.558;2023-06-22T13:58:05;32.90;89.60
3190;DHT22;1606;51.946;10.558;2023-06-22T14:00:34;33.10;87.70
3190;DHT22;1606;51.946;10.558;2023-06-22T14:03:02;32.90;89.90
3190;DHT22;1606;51.946;10.558;2023-06-22T14:05:30;32.80;89.60
3190;DHT22;1606;51.946;10.558;2023-06-22T14:07:58;32.50;89.60
3190;DHT22;1606;51.946;10.558;2023-06-22T14:10:26;32.70;87.70
3190;DHT22;1606;51.946;10.558;2023-06-22T14:12:54;32.70;89.90
3190;DHT22;1606;51.946;10.558;2023-06-22T14:15:22;32.60;91.90
3190;DHT22;1606;51.946;10.558;2023-06-22T14:17:51;32.70;88.90
3190;DHT22;1606;51.946;10.558;2023-06-22T14:20:20;32.70;88.50
3190;DHT22;1606;51.946;10.558;2023-06-22T14:22:47;33.10;87.20
3190;DHT22;1606;51.946;10.558;2023-06-22T14:25:15;33.30;86.40
3190;DHT22;1606;51.946;10.558;2023-06-22T14:27:43;33.40;84.00
3190;DHT22;1606;51.946;10.558;2023-06-22T14:30:12;33.00;86.00
3190;DHT22;1606;51.946;10.558;2023-06-22T14:32:39;32.90;86.60
3190;DHT22;1606;51.946;10.558;2023-06-22T14:35:09;32.70;86.40
3190;DHT22;1606;51.946;10.558;2023-06-22T14:37:36;32.70;86.60
3190;DHT22;1606;51.946;10.558;2023-06-22T14:40:05;32.60;87.10
3190;DHT22;1606;51.946;10.558;2023-06-22T14:42:33;32.50;89.80
3190;DHT22;1606;51.946;10.558;2023-06-22T14:45:01;32.60;90.10
3190;DHT22;1606;51.946;10.558;2023-06-22T14:47:29;32.50;89.90
3190;DHT22;1606;51.946;10.558;2023-06-22T14:49:57;32.60;88.90
3190;DHT22;1606;51.946;10.558;2023-06-22T14:52:28;32.80;86.90
3190;DHT22;1606;51.946;10.558;2023-06-22T14:54:56;32.70;88.00
3190;DHT22;1606;51.946;10.558;2023-06-22T14:57:24;32.60;86.90
3190;DHT22;1606;51.946;10.558;2023-06-22T14:59:51;32.30;87.70
3190;DHT22;1606;51.946;10.558;2023-06-22T15:02:19;32.20;88.90
3190;DHT22;1606;51.946;10.558;2023-06-22T15:04:47;32.00;89.80
3190;DHT22;1606;51.946;10.558;2023-06-22T15:07:17;31.80;90.40
3190;DHT22;1606;51.946;10.558;2023-06-22T15:09:47;31.80;90.20
3190;DHT22;1606;51.946;10.558;2023-06-22T15:12:14;31.60;90.80
3190;DHT22;1606;51.946;10.558;2023-06-22T15:14:42;31.50;90.60
3190;DHT22;1606;51.946;10.558;2023-06-22T15:17:10;31.10;91.20
3190;DHT22;1606;51.946;10.558;2023-06-22T15:19:40;30.90;90.60
3190;DHT22;1606;51.946;10.558;2023-06-22T15:22:08;30.90;90.80
3190;DHT22;1606;51.946;10.558;2023-06-22T15:24:36;31.00;90.80
3190;DHT22;1606;51.946;10.558;2023-06-22T15:27:06;30.70;91.10
3190;DHT22;1606;51.946;10.558;2023-06-22T15:29:34;30.70;91.30
3190;DHT22;1606;51.946;10.558;2023-06-22T15:32:02;30.60;91.20
3190;DHT22;1606;51.946;10.558;2023-06-22T15:34:29;30.60;91.60
3190;DHT22;1606;51.946;10.558;2023-06-22T15:36:57;30.60;91.40
3190;DHT22;1606;51.946;10.558;2023-06-22T15:39:25;30.60;91.30
3190;DHT22;1606;51.946;10.558;2023-06-22T15:41:53;30.60;91.40
3190;DHT22;1606;51.946;10.558;2023-06-22T15:44:23;30.40;91.50
3190;DHT22;1606;51.946;10.558;2023-06-22T15:46:51;30.30;92.10
3190;DHT22;1606;51.946;10.558;2023-06-22T15:49:19;30.20;91.70
3190;DHT22;1606;51.946;10.558;2023-06-22T15:51:47;30.20;91.90
3190;DHT22;1606;51.946;10.558;2023-06-22T15:54:15;30.30;91.90